Brundall, United Kingdom
Current Conditions -  °F | °C
As of 7:50 PM on Monday 24 Nov 2014 (Local Time) from EGSH Reporting Station
Light Fog Light Fog  
Wind Chill: 37°   Ceiling: Unl
Heat Index: 37°   Visibility: 6mi
Dew Point: 37°   Wind: 3mph
Humidity: 100%   Direction: 260°W
Pressure: 30.33"   Gusts: NA
Location:  52.62°N, 1.44°E
Report Text: EGSH 241950Z 26003KT 9999 MIFG NSC 03/03 Q1027
Loading
Personal Weather Stations






























Interactive Weather Map New forecast layout! Learn more

10-Day Weather Forecast

Advertisements
Track Severe Weather on mobile